createdAt,value
2019-03-29T00:00:57.284Z,0.40
2019-03-29T00:03:29.537Z,0.40
2019-03-29T00:06:01.251Z,0.40
2019-03-29T00:08:33.000Z,0.30
2019-03-29T00:11:04.664Z,0.30
2019-03-29T00:13:36.522Z,0.20
2019-03-29T00:16:08.339Z,0.20
2019-03-29T00:18:40.099Z,0.10
2019-03-29T00:21:13.044Z,0.10
2019-03-29T00:23:44.963Z,0.10
2019-03-29T00:26:16.746Z,0.10
2019-03-29T00:28:48.519Z,0.20
2019-03-29T00:31:20.247Z,0.20
2019-03-29T00:33:52.350Z,0.30
2019-03-29T00:36:24.119Z,0.40
2019-03-29T00:38:55.871Z,0.40
2019-03-29T00:41:27.570Z,0.50
2019-03-29T00:43:59.313Z,0.50
2019-03-29T00:46:30.896Z,0.60
2019-03-29T00:49:02.572Z,0.70
2019-03-29T00:51:34.230Z,0.80
2019-03-29T00:54:05.935Z,0.90
2019-03-29T00:56:38.382Z,0.90
2019-03-29T00:59:10.611Z,1.10
2019-03-29T01:01:42.245Z,1.10
2019-03-29T01:04:13.949Z,1.20
2019-03-29T01:06:58.475Z,1.20
2019-03-29T01:09:38.382Z,1.10
2019-03-29T01:12:10.953Z,1.10
2019-03-29T01:14:42.994Z,1.00
2019-03-29T01:17:14.819Z,0.90
2019-03-29T01:19:46.493Z,0.90
2019-03-29T01:22:18.230Z,0.90
2019-03-29T01:24:49.880Z,0.80
2019-03-29T01:27:21.593Z,0.80
2019-03-29T01:29:53.209Z,0.80
2019-03-29T01:32:25.871Z,0.90
2019-03-29T01:34:57.498Z,0.90
2019-03-29T01:37:29.134Z,1.00
2019-03-29T01:40:00.776Z,1.00
2019-03-29T01:42:32.496Z,1.00
2019-03-29T01:45:04.225Z,1.00
2019-03-29T01:47:35.895Z,1.00
2019-03-29T01:50:08.411Z,1.00
2019-03-29T01:52:43.164Z,1.10
2019-03-29T01:55:14.907Z,1.10
2019-03-29T01:57:46.543Z,1.20
2019-03-29T02:00:29.918Z,1.20
2019-03-29T02:03:01.815Z,1.30
2019-03-29T02:05:33.502Z,1.40
2019-03-29T02:08:05.340Z,1.50
2019-03-29T02:10:36.985Z,1.60
2019-03-29T02:13:08.744Z,1.60
2019-03-29T02:15:40.408Z,1.70
2019-03-29T02:18:12.288Z,1.70
2019-03-29T02:20:43.904Z,1.80
2019-03-29T02:23:15.547Z,1.90
2019-03-29T02:25:48.216Z,1.90
2019-03-29T02:28:19.935Z,2.00
2019-03-29T02:30:51.665Z,2.10
2019-03-29T02:33:23.365Z,2.30
2019-03-29T02:35:55.066Z,2.40
2019-03-29T02:38:26.682Z,2.50
2019-03-29T02:40:58.396Z,2.50
2019-03-29T02:43:30.044Z,2.60
2019-03-29T02:46:01.706Z,2.70
2019-03-29T02:48:33.409Z,2.80
2019-03-29T02:51:05.273Z,2.90
2019-03-29T02:53:38.133Z,3.00
2019-03-29T02:56:09.826Z,3.00
2019-03-29T02:58:41.434Z,3.10
2019-03-29T03:01:13.124Z,3.10
2019-03-29T03:03:44.862Z,3.20
2019-03-29T03:06:16.458Z,3.20
2019-03-29T03:08:48.190Z,3.30
2019-03-29T03:11:19.786Z,3.30
2019-03-29T03:13:51.494Z,3.40
2019-03-29T03:16:23.096Z,3.40
2019-03-29T03:18:54.821Z,3.50
2019-03-29T03:21:26.494Z,3.60
2019-03-29T03:23:58.326Z,3.60
2019-03-29T03:26:29.964Z,3.70
2019-03-29T03:29:01.676Z,3.70
2019-03-29T03:31:33.379Z,3.80
2019-03-29T03:34:04.989Z,3.90
2019-03-29T03:36:36.606Z,3.90
2019-03-29T03:39:09.005Z,4.00
2019-03-29T03:41:40.586Z,4.00
2019-03-29T03:44:12.279Z,4.10
2019-03-29T03:46:44.054Z,4.10
2019-03-29T03:49:15.708Z,4.10
2019-03-29T03:51:47.361Z,4.20
2019-03-29T03:54:19.384Z,4.20
2019-03-29T03:56:53.840Z,4.20
2019-03-29T03:59:27.436Z,4.30
2019-03-29T04:01:59.116Z,4.30
2019-03-29T04:04:30.833Z,4.30
2019-03-29T04:07:02.360Z,4.40
2019-03-29T04:09:48.407Z,4.40
2019-03-29T04:12:07.341Z,4.40
2019-03-29T04:14:39.032Z,4.40
2019-03-29T04:17:10.745Z,4.40
2019-03-29T04:19:42.437Z,4.50
2019-03-29T04:22:14.206Z,4.50
2019-03-29T04:24:46.051Z,4.50
2019-03-29T04:27:17.742Z,4.60
2019-03-29T04:29:49.379Z,4.60
2019-03-29T04:32:21.070Z,4.60
2019-03-29T04:34:52.771Z,4.60
2019-03-29T04:37:24.487Z,4.60
2019-03-29T04:40:06.955Z,4.60
2019-03-29T04:42:29.370Z,4.60
2019-03-29T04:45:01.052Z,4.70
2019-03-29T04:47:32.801Z,4.70
2019-03-29T04:50:04.443Z,4.70
2019-03-29T04:52:36.189Z,4.70
2019-03-29T04:55:08.099Z,4.70
2019-03-29T04:57:39.803Z,4.80
2019-03-29T05:00:12.011Z,4.80
2019-03-29T05:02:43.755Z,4.80
2019-03-29T05:05:15.427Z,4.90
2019-03-29T05:07:47.174Z,4.90
2019-03-29T05:10:21.400Z,5.00
2019-03-29T05:12:52.238Z,5.00
2019-03-29T05:15:23.955Z,5.10
2019-03-29T05:17:55.674Z,5.20
2019-03-29T05:20:27.531Z,5.20
2019-03-29T05:22:59.381Z,5.30
2019-03-29T05:25:31.109Z,5.40
2019-03-29T05:28:02.856Z,5.40
2019-03-29T05:30:34.642Z,5.50
2019-03-29T05:33:06.313Z,5.60
2019-03-29T05:35:37.995Z,5.70
2019-03-29T05:38:09.691Z,5.70
2019-03-29T05:40:41.312Z,5.80
2019-03-29T05:43:13.055Z,5.90
2019-03-29T05:45:44.749Z,5.90
2019-03-29T05:48:16.571Z,6.00
2019-03-29T05:50:48.254Z,6.10
2019-03-29T05:53:19.999Z,6.20
2019-03-29T05:56:02.704Z,6.30
2019-03-29T05:58:34.927Z,6.30
2019-03-29T06:01:24.661Z,6.40
2019-03-29T06:04:01.209Z,6.60
2019-03-29T06:06:38.871Z,6.60
2019-03-29T06:09:19.587Z,6.70
2019-03-29T06:11:53.201Z,6.80
2019-03-29T06:14:33.101Z,6.90
2019-03-29T06:17:18.317Z,7.00
2019-03-29T06:19:50.730Z,7.10
2019-03-29T06:22:27.569Z,7.20
2019-03-29T06:25:00.345Z,7.30
2019-03-29T06:27:32.027Z,7.50
2019-03-29T06:30:03.969Z,7.60
2019-03-29T06:32:35.716Z,7.60
2019-03-29T06:35:08.019Z,7.70
2019-03-29T06:37:42.689Z,7.80
2019-03-29T06:40:22.675Z,7.90
2019-03-29T06:42:54.339Z,8.10
2019-03-29T06:45:29.018Z,8.20
2019-03-29T06:48:00.744Z,8.30
2019-03-29T06:50:32.435Z,8.40
2019-03-29T06:53:04.103Z,8.60
2019-03-29T06:55:35.966Z,8.70
2019-03-29T06:58:08.022Z,8.90
2019-03-29T07:00:39.659Z,9.00
2019-03-29T07:03:11.287Z,9.10
2019-03-29T07:06:01.701Z,9.30
2019-03-29T07:08:33.450Z,9.40
2019-03-29T07:11:16.746Z,9.60
2019-03-29T07:13:38.423Z,9.80
2019-03-29T07:16:10.082Z,10.00
2019-03-29T07:18:41.746Z,10.10
2019-03-29T07:21:21.396Z,10.20
2019-03-29T07:23:46.848Z,10.30
2019-03-29T07:26:18.581Z,10.30
2019-03-29T07:28:50.312Z,10.40
2019-03-29T07:31:22.098Z,10.50
2019-03-29T07:33:55.224Z,10.60
2019-03-29T07:36:26.948Z,10.70
2019-03-29T07:38:58.697Z,10.80
2019-03-29T07:41:32.074Z,10.90
2019-03-29T07:44:05.184Z,11.00
2019-03-29T07:46:43.212Z,11.20
2019-03-29T07:49:15.006Z,11.30
2019-03-29T07:51:51.872Z,11.50
2019-03-29T07:54:24.717Z,11.60
2019-03-29T07:56:56.443Z,11.70
2019-03-29T07:59:28.871Z,11.80
2019-03-29T08:02:00.695Z,11.90
2019-03-29T08:04:46.293Z,12.00
2019-03-29T08:07:26.695Z,12.10
2019-03-29T08:09:49.668Z,12.20
2019-03-29T08:12:22.237Z,12.20
2019-03-29T08:14:57.015Z,12.30
2019-03-29T08:17:28.629Z,12.20
2019-03-29T08:20:35.885Z,12.10
2019-03-29T08:22:35.093Z,11.90
2019-03-29T08:25:10.925Z,11.80
2019-03-29T08:27:45.598Z,11.70
2019-03-29T08:30:17.574Z,11.70
2019-03-29T08:32:50.111Z,11.70
2019-03-29T08:35:28.744Z,11.80
2019-03-29T08:38:00.561Z,11.80
2019-03-29T08:40:33.395Z,11.80
2019-03-29T08:43:15.116Z,12.00
2019-03-29T08:45:48.978Z,12.00
2019-03-29T08:48:27.204Z,12.10
2019-03-29T08:51:01.145Z,12.10
2019-03-29T08:53:42.002Z,12.20
2019-03-29T08:56:19.236Z,12.00
2019-03-29T08:59:17.320Z,11.90
2019-03-29T09:01:52.065Z,11.70
2019-03-29T09:04:29.783Z,11.50
2019-03-29T09:07:08.393Z,11.30
2019-03-29T09:09:36.302Z,11.30
2019-03-29T09:12:14.802Z,11.40
2019-03-29T09:14:46.810Z,11.50
2019-03-29T09:17:23.922Z,11.50
2019-03-29T09:19:55.643Z,11.50
2019-03-29T09:22:27.379Z,11.60
2019-03-29T09:24:59.101Z,11.70
2019-03-29T09:27:32.090Z,11.80
2019-03-29T09:30:05.203Z,11.90
2019-03-29T09:32:37.142Z,12.00
2019-03-29T09:35:09.135Z,12.10
2019-03-29T09:37:40.717Z,12.30
2019-03-29T09:40:14.044Z,12.40
2019-03-29T09:42:45.934Z,12.50
2019-03-29T09:45:17.630Z,12.50
2019-03-29T09:47:50.272Z,12.40
2019-03-29T09:50:23.031Z,12.10
2019-03-29T09:52:54.999Z,12.00
2019-03-29T09:55:26.629Z,11.90
2019-03-29T09:57:58.352Z,11.60
2019-03-29T10:00:29.971Z,11.40
2019-03-29T10:03:01.673Z,11.40
2019-03-29T10:05:33.762Z,11.60
2019-03-29T10:08:05.598Z,11.70
2019-03-29T10:10:37.359Z,11.80
2019-03-29T10:13:09.155Z,11.80
2019-03-29T10:15:40.830Z,11.80
2019-03-29T10:18:12.622Z,11.90
2019-03-29T10:20:44.383Z,12.00
2019-03-29T10:23:16.245Z,12.20
2019-03-29T10:25:48.004Z,12.50
2019-03-29T10:28:20.024Z,12.70
2019-03-29T10:30:51.844Z,12.80
2019-03-29T10:33:23.699Z,13.00
2019-03-29T10:35:55.501Z,13.30
2019-03-29T10:38:27.375Z,13.40
2019-03-29T10:40:59.239Z,13.50
2019-03-29T10:43:31.225Z,13.50
2019-03-29T10:46:03.219Z,13.60
2019-03-29T10:48:35.015Z,13.70
2019-03-29T10:51:08.451Z,13.60
2019-03-29T10:53:40.424Z,13.50
2019-03-29T10:56:12.415Z,13.50
2019-03-29T10:58:45.032Z,13.40
2019-03-29T11:01:16.857Z,13.10
2019-03-29T11:03:48.690Z,13.00
2019-03-29T11:06:20.339Z,12.90
2019-03-29T11:08:51.971Z,12.90
2019-03-29T11:11:23.673Z,13.10
2019-03-29T11:13:56.810Z,13.30
2019-03-29T11:16:32.344Z,13.50
2019-03-29T11:19:04.083Z,13.70
2019-03-29T11:21:35.837Z,13.70
2019-03-29T11:24:09.251Z,13.80
2019-03-29T11:26:42.018Z,13.70
2019-03-29T11:29:15.420Z,13.60
2019-03-29T11:31:47.095Z,13.60
2019-03-29T11:34:20.927Z,13.70
2019-03-29T11:36:52.819Z,13.70
2019-03-29T11:39:27.463Z,13.70
2019-03-29T11:41:59.417Z,13.80
2019-03-29T11:44:31.055Z,14.00
2019-03-29T11:47:02.728Z,14.00
2019-03-29T11:49:34.498Z,14.10
2019-03-29T11:52:06.319Z,14.10
2019-03-29T11:54:38.079Z,14.10
2019-03-29T11:57:09.988Z,14.10
2019-03-29T11:59:41.708Z,14.10
2019-03-29T12:02:13.417Z,14.30
2019-03-29T12:04:45.156Z,14.40
2019-03-29T12:07:16.858Z,14.40
2019-03-29T12:09:56.732Z,14.30
2019-03-29T12:12:42.174Z,14.30
2019-03-29T12:15:15.801Z,14.30
2019-03-29T12:17:52.491Z,14.40
2019-03-29T12:20:38.118Z,14.40
2019-03-29T12:23:28.714Z,14.30
2019-03-29T12:26:10.061Z,14.40
2019-03-29T12:28:53.334Z,14.60
2019-03-29T12:31:25.375Z,14.60
2019-03-29T12:34:04.063Z,14.50
2019-03-29T12:36:37.302Z,14.30
2019-03-29T12:39:18.625Z,14.30
2019-03-29T12:41:50.248Z,14.20
2019-03-29T12:44:33.313Z,14.10
2019-03-29T12:47:11.527Z,14.20
2019-03-29T12:50:03.580Z,14.20
2019-03-29T12:52:45.032Z,14.20
2019-03-29T12:55:22.734Z,14.10
2019-03-29T12:58:03.128Z,14.10
2019-03-29T13:00:36.779Z,14.00
2019-03-29T13:03:08.628Z,14.00
2019-03-29T13:05:40.405Z,13.90
2019-03-29T13:08:12.106Z,13.90
2019-03-29T13:13:48.979Z,13.70
2019-03-29T13:16:22.151Z,13.70
2019-03-29T13:18:53.925Z,13.70
2019-03-29T13:21:38.882Z,13.80
2019-03-29T13:24:22.669Z,13.80
2019-03-29T13:26:59.731Z,13.80
2019-03-29T13:30:00.821Z,13.80
2019-03-29T13:32:37.445Z,14.00
2019-03-29T13:35:28.641Z,14.00
2019-03-29T13:38:20.168Z,14.00
2019-03-29T13:40:59.596Z,14.00
2019-03-29T13:44:22.946Z,14.10
2019-03-29T13:46:46.800Z,14.10
2019-03-29T13:49:19.288Z,14.10
2019-03-29T13:51:51.001Z,14.10
2019-03-29T13:54:23.755Z,14.00
2019-03-29T13:56:55.618Z,13.90
2019-03-29T13:59:27.346Z,14.00
2019-03-29T14:01:59.117Z,14.00
2019-03-29T14:04:31.001Z,14.10
2019-03-29T14:07:02.964Z,14.10
2019-03-29T14:09:34.688Z,14.00
2019-03-29T14:12:06.450Z,13.80
2019-03-29T14:14:38.882Z,13.90
2019-03-29T14:17:10.911Z,14.00
2019-03-29T14:19:42.780Z,14.20
2019-03-29T14:22:14.536Z,14.20
2019-03-29T14:24:46.344Z,14.20
2019-03-29T14:27:18.126Z,14.50
2019-03-29T14:30:03.263Z,14.80
2019-03-29T14:32:23.472Z,15.00
2019-03-29T14:34:55.260Z,15.10
2019-03-29T14:37:27.225Z,15.00
2019-03-29T14:39:59.254Z,14.90
2019-03-29T14:42:31.154Z,14.60
2019-03-29T14:45:02.960Z,14.50
2019-03-29T14:47:42.707Z,14.40
2019-03-29T14:50:09.157Z,14.30
2019-03-29T14:52:41.035Z,14.20
2019-03-29T14:55:13.125Z,14.30
2019-03-29T14:57:44.911Z,14.50
2019-03-29T15:00:18.559Z,14.50
2019-03-29T15:02:50.348Z,14.60
2019-03-29T15:05:22.109Z,14.70
2019-03-29T15:07:53.892Z,14.90
2019-03-29T15:10:28.108Z,15.20
2019-03-29T15:12:59.901Z,15.30
2019-03-29T15:15:31.872Z,15.40
2019-03-29T15:18:03.749Z,15.60
2019-03-29T15:20:35.615Z,15.90
2019-03-29T15:23:07.650Z,16.00
2019-03-29T15:25:40.734Z,16.00
2019-03-29T15:28:12.593Z,16.00
2019-03-29T15:30:44.305Z,15.90
2019-03-29T15:33:16.084Z,15.70
2019-03-29T15:35:47.845Z,15.80
2019-03-29T15:38:19.554Z,15.80
2019-03-29T15:40:51.327Z,15.80
2019-03-29T15:43:23.035Z,15.90
2019-03-29T15:45:54.844Z,15.90
2019-03-29T15:48:26.678Z,15.90
2019-03-29T15:50:58.394Z,15.80
2019-03-29T15:53:30.142Z,15.70
2019-03-29T15:56:02.184Z,15.50
2019-03-29T15:58:33.819Z,15.30
2019-03-29T16:01:05.697Z,15.00
2019-03-29T16:03:37.395Z,14.70
2019-03-29T16:06:09.393Z,14.30
2019-03-29T16:08:41.126Z,13.90
2019-03-29T16:11:17.227Z,13.70
2019-03-29T16:13:46.253Z,13.50
2019-03-29T16:16:17.960Z,13.30
2019-03-29T16:18:49.680Z,13.20
2019-03-29T16:21:21.396Z,13.00
2019-03-29T16:23:53.221Z,12.90
2019-03-29T16:26:24.948Z,12.80
2019-03-29T16:28:56.748Z,12.70
2019-03-29T16:31:28.433Z,12.50
2019-03-29T16:34:00.055Z,12.50
2019-03-29T16:36:31.941Z,12.40
2019-03-29T16:39:04.302Z,12.20
2019-03-29T16:41:36.093Z,12.10
2019-03-29T16:44:08.023Z,12.00
2019-03-29T16:46:39.966Z,11.80
2019-03-29T16:49:11.633Z,11.70
2019-03-29T16:51:43.422Z,11.60
2019-03-29T16:54:15.097Z,11.40
2019-03-29T16:56:46.842Z,11.30
2019-03-29T16:59:18.735Z,11.10
2019-03-29T17:01:51.445Z,11.00
2019-03-29T17:04:23.368Z,10.80
2019-03-29T17:06:55.189Z,10.60
2019-03-29T17:09:27.976Z,10.50
2019-03-29T17:11:59.830Z,10.30
2019-03-29T17:14:31.749Z,10.00
2019-03-29T17:17:03.413Z,9.80
2019-03-29T17:19:35.142Z,9.60
2019-03-29T17:22:06.925Z,9.40
2019-03-29T17:24:38.664Z,9.10
2019-03-29T17:27:10.434Z,8.90
2019-03-29T17:29:42.179Z,8.70
2019-03-29T17:32:13.902Z,8.50
2019-03-29T17:34:45.667Z,8.40
2019-03-29T17:37:17.442Z,8.20
2019-03-29T17:39:49.143Z,8.10
2019-03-29T17:42:20.908Z,7.90
2019-03-29T17:44:53.760Z,7.80
2019-03-29T17:47:26.605Z,7.60
2019-03-29T17:49:58.385Z,7.50
2019-03-29T17:52:30.086Z,7.40
2019-03-29T17:55:01.817Z,7.20
2019-03-29T17:57:41.217Z,7.10
2019-03-29T18:00:21.355Z,7.00
2019-03-29T18:03:08.483Z,6.90
2019-03-29T18:05:48.104Z,6.80
2019-03-29T18:08:22.003Z,6.70
2019-03-29T18:10:53.770Z,6.60
2019-03-29T18:13:26.090Z,6.50
2019-03-29T18:15:58.410Z,6.30
2019-03-29T18:18:30.153Z,6.20
2019-03-29T18:21:02.003Z,6.20
2019-03-29T18:23:34.499Z,6.10
2019-03-29T18:26:07.016Z,6.00
2019-03-29T18:28:38.852Z,5.90
2019-03-29T18:31:11.237Z,5.90
2019-03-29T18:33:43.223Z,5.80
2019-03-29T18:36:15.016Z,5.80
2019-03-29T18:38:49.336Z,5.70
2019-03-29T18:41:21.110Z,5.70
2019-03-29T18:43:52.920Z,5.60
2019-03-29T18:46:24.742Z,5.50
2019-03-29T18:48:57.876Z,5.40
2019-03-29T18:51:29.620Z,5.30
2019-03-29T18:54:01.942Z,5.30
2019-03-29T18:56:33.679Z,5.20
2019-03-29T18:59:05.552Z,5.10
2019-03-29T19:01:37.755Z,5.00
2019-03-29T19:04:09.721Z,5.00
2019-03-29T19:06:41.776Z,4.90
2019-03-29T19:09:13.566Z,4.80
2019-03-29T19:11:45.371Z,4.70
2019-03-29T19:14:17.226Z,4.60
2019-03-29T19:16:58.929Z,4.50
2019-03-29T19:19:22.630Z,4.50
2019-03-29T19:21:54.336Z,4.40
2019-03-29T19:24:26.168Z,4.40
2019-03-29T19:26:57.967Z,4.30
2019-03-29T19:29:29.867Z,4.30
2019-03-29T19:32:01.632Z,4.30
2019-03-29T19:34:36.248Z,4.20
2019-03-29T19:37:08.034Z,4.20
2019-03-29T19:39:39.724Z,4.10
2019-03-29T19:42:11.497Z,4.10
2019-03-29T19:44:43.419Z,4.00
2019-03-29T19:47:15.386Z,4.10
2019-03-29T19:49:47.148Z,4.10
2019-03-29T19:52:18.812Z,4.10
2019-03-29T19:54:50.680Z,4.00
2019-03-29T19:57:22.625Z,4.00
2019-03-29T19:59:54.761Z,3.90
2019-03-29T20:02:27.853Z,3.80
2019-03-29T20:04:59.710Z,3.70
2019-03-29T20:07:31.673Z,3.70
2019-03-29T20:10:03.491Z,3.60
2019-03-29T20:12:36.373Z,3.50
2019-03-29T20:15:08.330Z,3.50
2019-03-29T20:17:40.338Z,3.40
2019-03-29T20:20:15.099Z,3.40
2019-03-29T20:22:47.165Z,3.30
2019-03-29T20:25:19.187Z,3.30
2019-03-29T20:27:50.978Z,3.20
2019-03-29T20:30:22.837Z,3.20
2019-03-29T20:32:54.931Z,3.30
2019-03-29T20:35:26.886Z,3.30
2019-03-29T20:37:58.711Z,3.30
2019-03-29T20:40:32.234Z,3.30
2019-03-29T20:43:04.222Z,3.20
2019-03-29T20:45:36.510Z,3.10
2019-03-29T20:48:08.385Z,3.00
2019-03-29T20:50:40.174Z,2.90
2019-03-29T20:53:12.178Z,2.90
2019-03-29T20:55:44.198Z,2.80
2019-03-29T20:58:16.008Z,2.70
2019-03-29T21:00:47.843Z,2.70
2019-03-29T21:03:19.627Z,2.70
2019-03-29T21:05:51.551Z,2.70
2019-03-29T21:08:23.340Z,2.60
2019-03-29T21:10:56.577Z,2.60
2019-03-29T21:13:28.625Z,2.60
2019-03-29T21:16:00.545Z,2.50
2019-03-29T21:18:32.430Z,2.50
2019-03-29T21:21:04.270Z,2.40
2019-03-29T21:23:36.335Z,2.40
2019-03-29T21:26:08.252Z,2.30
2019-03-29T21:28:40.023Z,2.30
2019-03-29T21:31:12.859Z,2.20
2019-03-29T21:33:44.691Z,2.20
2019-03-29T21:36:18.087Z,2.20
2019-03-29T21:38:49.822Z,2.10
2019-03-29T21:41:22.639Z,2.10
2019-03-29T21:43:54.501Z,2.00
2019-03-29T21:46:26.333Z,2.00
2019-03-29T21:48:58.082Z,2.00
2019-03-29T21:51:29.840Z,2.00
2019-03-29T21:54:01.598Z,2.00
2019-03-29T21:56:33.498Z,1.90
2019-03-29T21:59:06.256Z,1.90
2019-03-29T22:01:37.963Z,1.80
2019-03-29T22:04:09.612Z,1.80
2019-03-29T22:06:41.398Z,1.80
2019-03-29T22:09:13.140Z,1.80
2019-03-29T22:11:44.936Z,1.70
2019-03-29T22:14:16.731Z,1.70
2019-03-29T22:16:48.497Z,1.70
2019-03-29T22:19:20.320Z,1.60
2019-03-29T22:21:52.057Z,1.60
2019-03-29T22:24:23.824Z,1.60
2019-03-29T22:26:55.585Z,1.50
2019-03-29T22:29:27.419Z,1.50
2019-03-29T22:31:59.218Z,1.50
2019-03-29T22:34:30.962Z,1.50
2019-03-29T22:37:02.663Z,1.40
2019-03-29T22:39:34.438Z,1.40
2019-03-29T22:42:06.192Z,1.40
2019-03-29T22:44:37.923Z,1.40
2019-03-29T22:47:09.686Z,1.40
2019-03-29T22:49:41.362Z,1.40
2019-03-29T22:52:13.022Z,1.40
2019-03-29T22:54:44.734Z,1.40
2019-03-29T22:57:16.612Z,1.30
2019-03-29T22:59:48.351Z,1.30
2019-03-29T23:02:20.066Z,1.20
2019-03-29T23:04:51.817Z,1.20
2019-03-29T23:07:23.611Z,1.20
2019-03-29T23:09:55.260Z,1.10
2019-03-29T23:12:27.039Z,1.10
2019-03-29T23:14:58.832Z,1.00
2019-03-29T23:17:30.496Z,0.90
2019-03-29T23:20:02.337Z,0.90
2019-03-29T23:22:34.048Z,0.80
2019-03-29T23:25:05.996Z,0.80
2019-03-29T23:27:37.772Z,0.80
2019-03-29T23:30:09.778Z,0.70
2019-03-29T23:32:41.595Z,0.70
2019-03-29T23:35:13.338Z,0.70
2019-03-29T23:37:45.185Z,0.70
2019-03-29T23:40:16.904Z,0.60
2019-03-29T23:42:48.685Z,0.60
2019-03-29T23:45:20.417Z,0.60
2019-03-29T23:47:52.185Z,0.60
2019-03-29T23:50:23.957Z,0.60
2019-03-29T23:52:55.661Z,0.50
2019-03-29T23:55:27.478Z,0.50
2019-03-29T23:57:59.205Z,0.50
